createdAt,value
2023-03-14T00:01:13.532Z,11.76
2023-03-14T00:03:45.539Z,11.88
2023-03-14T00:06:18.633Z,11.77
2023-03-14T00:08:52.249Z,11.71
2023-03-14T00:11:23.946Z,11.50
2023-03-14T00:13:55.475Z,11.33
2023-03-14T00:16:27.573Z,11.44
2023-03-14T00:19:00.706Z,11.55
2023-03-14T00:21:32.311Z,11.71
2023-03-14T00:24:04.100Z,11.84
2023-03-14T00:26:35.709Z,11.86
2023-03-14T00:29:07.281Z,12.04
2023-03-14T00:31:40.716Z,12.04
2023-03-14T00:34:12.305Z,11.57
2023-03-14T00:36:43.898Z,11.34
2023-03-14T00:39:15.432Z,11.48
2023-03-14T00:41:46.987Z,11.36
2023-03-14T00:44:18.579Z,11.46
2023-03-14T00:46:50.352Z,11.71
2023-03-14T00:49:21.971Z,11.61
2023-03-14T00:51:54.157Z,11.21
2023-03-14T00:54:25.838Z,11.31
2023-03-14T00:56:57.434Z,11.28
2023-03-14T00:59:28.984Z,11.08
2023-03-14T01:02:00.623Z,11.12
2023-03-14T01:04:32.471Z,10.54
2023-03-14T01:07:04.271Z,10.80
2023-03-14T01:09:35.817Z,11.03
2023-03-14T01:12:07.685Z,10.67
2023-03-14T01:14:39.230Z,10.97
2023-03-14T01:17:10.805Z,10.88
2023-03-14T01:19:42.318Z,10.50
2023-03-14T01:22:13.870Z,10.62
2023-03-14T01:24:45.418Z,10.94
2023-03-14T01:27:17.032Z,11.01
2023-03-14T01:29:49.048Z,10.84
2023-03-14T01:32:20.670Z,10.93
2023-03-14T01:34:52.789Z,10.85
2023-03-14T01:37:24.543Z,10.69
2023-03-14T01:39:56.270Z,10.74
2023-03-14T01:42:27.846Z,10.87
2023-03-14T01:45:02.299Z,10.79
2023-03-14T01:47:33.953Z,10.72
2023-03-14T01:50:11.436Z,10.90
2023-03-14T01:52:49.562Z,10.88
2023-03-14T01:55:28.290Z,10.90
2023-03-14T01:58:04.310Z,10.83
2023-03-14T02:00:36.007Z,10.55
2023-03-14T02:03:15.038Z,10.61
2023-03-14T02:05:48.144Z,10.94
2023-03-14T02:08:21.270Z,11.20
2023-03-14T02:10:53.112Z,11.11
2023-03-14T02:13:24.862Z,11.18
2023-03-14T02:15:56.558Z,11.15
2023-03-14T02:18:28.480Z,11.29
2023-03-14T02:21:27.262Z,11.39
2023-03-14T02:24:17.935Z,11.56
2023-03-14T02:27:15.125Z,11.70
2023-03-14T02:29:59.926Z,11.63
2023-03-14T02:32:35.058Z,11.60
2023-03-14T02:35:12.601Z,11.25
2023-03-14T02:37:54.466Z,11.23
2023-03-14T02:40:26.212Z,11.19
2023-03-14T02:42:57.725Z,11.09
2023-03-14T02:45:52.060Z,11.05
2023-03-14T02:48:34.978Z,11.41
2023-03-14T02:51:07.330Z,11.32
2023-03-14T02:53:39.708Z,11.14
2023-03-14T02:56:11.878Z,11.31
2023-03-14T02:58:43.484Z,11.26
2023-03-14T03:01:15.241Z,11.20
2023-03-14T03:03:46.864Z,11.26
2023-03-14T03:06:18.394Z,11.31
2023-03-14T03:08:49.955Z,11.11
2023-03-14T03:11:21.856Z,11.28
2023-03-14T03:13:53.348Z,11.53
2023-03-14T03:16:24.967Z,10.83
2023-03-14T03:18:56.702Z,11.40
2023-03-14T03:21:30.119Z,11.18
2023-03-14T03:24:02.008Z,11.32
2023-03-14T03:26:36.049Z,11.24
2023-03-14T03:29:07.703Z,11.12
2023-03-14T03:31:40.307Z,11.10
2023-03-14T03:34:13.469Z,11.29
2023-03-14T03:36:45.063Z,11.27
2023-03-14T03:39:18.963Z,11.26
2023-03-14T03:41:50.625Z,11.44
2023-03-14T03:44:22.188Z,11.43
2023-03-14T03:46:53.737Z,11.35
2023-03-14T03:49:33.152Z,11.07
2023-03-14T03:52:04.654Z,11.27
2023-03-14T03:54:37.124Z,11.46
2023-03-14T03:57:08.735Z,11.48
2023-03-14T03:59:42.017Z,11.45
2023-03-14T04:02:13.585Z,11.44
2023-03-14T04:04:45.403Z,11.59
2023-03-14T04:07:16.960Z,11.39
2023-03-14T04:09:48.632Z,11.68
2023-03-14T04:12:20.265Z,11.57
2023-03-14T04:14:53.030Z,11.75
2023-03-14T04:17:25.435Z,11.54
2023-03-14T04:19:57.252Z,11.63
2023-03-14T04:22:28.995Z,11.37
2023-03-14T04:25:00.581Z,11.20
2023-03-14T04:27:32.679Z,11.78
2023-03-14T04:30:04.820Z,11.67
2023-03-14T04:32:36.532Z,11.81
2023-03-14T04:35:08.975Z,11.77
2023-03-14T04:37:41.137Z,11.90
2023-03-14T04:40:13.474Z,11.94
2023-03-14T04:42:45.077Z,11.88
2023-03-14T04:45:16.880Z,12.18
2023-03-14T04:47:48.427Z,12.07
2023-03-14T04:50:20.185Z,11.92
2023-03-14T04:52:51.758Z,11.84
2023-03-14T04:55:24.493Z,12.07
2023-03-14T04:57:56.139Z,12.32
2023-03-14T05:00:27.697Z,12.50
2023-03-14T05:02:59.288Z,12.29
2023-03-14T05:05:30.813Z,12.50
2023-03-14T05:08:02.434Z,12.30
2023-03-14T05:10:33.923Z,12.55
2023-03-14T05:13:05.587Z,12.49
2023-03-14T05:15:37.140Z,12.49
2023-03-14T05:18:09.068Z,12.77
2023-03-14T05:20:40.643Z,12.85
2023-03-14T05:23:12.526Z,12.41
2023-03-14T05:25:45.499Z,11.87
2023-03-14T05:28:17.205Z,12.25
2023-03-14T05:30:49.800Z,12.67
2023-03-14T05:33:22.184Z,12.70
2023-03-14T05:35:53.779Z,12.88
2023-03-14T05:38:25.569Z,12.90
2023-03-14T05:40:57.181Z,12.99
2023-03-14T05:43:29.001Z,13.01
2023-03-14T05:46:00.648Z,12.92
2023-03-14T05:48:32.281Z,12.64
2023-03-14T05:51:04.090Z,12.77
2023-03-14T05:53:35.710Z,12.81
2023-03-14T05:56:08.228Z,12.76
2023-03-14T05:58:39.855Z,12.82
2023-03-14T06:01:11.480Z,12.64
2023-03-14T06:03:43.164Z,12.64
2023-03-14T06:06:14.869Z,12.44
2023-03-14T06:08:46.457Z,12.38
2023-03-14T06:11:20.284Z,12.39
2023-03-14T06:13:52.346Z,12.15
2023-03-14T06:16:23.962Z,12.22
2023-03-14T06:18:55.639Z,12.09
2023-03-14T06:21:27.156Z,12.22
2023-03-14T06:23:58.719Z,12.36
2023-03-14T06:26:30.186Z,12.38
2023-03-14T06:29:04.560Z,12.33
2023-03-14T06:31:36.460Z,12.53
2023-03-14T06:34:08.086Z,12.56
2023-03-14T06:36:39.628Z,12.65
2023-03-14T06:39:11.181Z,12.75
2023-03-14T06:41:44.750Z,12.88
2023-03-14T06:44:16.521Z,12.94
2023-03-14T06:46:48.088Z,13.15
2023-03-14T06:49:19.628Z,13.21
2023-03-14T06:51:51.659Z,13.28
2023-03-14T06:54:23.235Z,13.54
2023-03-14T06:56:54.762Z,13.60
2023-03-14T06:59:26.362Z,13.32
2023-03-14T07:01:57.869Z,13.35
2023-03-14T07:04:29.577Z,13.57
2023-03-14T07:07:01.189Z,13.51
2023-03-14T07:09:34.574Z,13.22
2023-03-14T07:12:06.647Z,13.55
2023-03-14T07:14:38.203Z,13.44
2023-03-14T07:17:09.780Z,13.87
2023-03-14T07:19:41.892Z,14.16
2023-03-14T07:22:13.566Z,14.25
2023-03-14T07:24:45.092Z,14.56
2023-03-14T07:27:16.667Z,14.42
2023-03-14T07:29:48.239Z,14.36
2023-03-14T07:32:19.898Z,13.36
2023-03-14T07:34:51.449Z,13.87
2023-03-14T07:37:23.196Z,14.14
2023-03-14T07:39:54.745Z,14.49
2023-03-14T07:42:26.321Z,14.60
2023-03-14T07:44:57.895Z,14.26
2023-03-14T07:47:29.459Z,14.40
2023-03-14T07:50:08.217Z,14.53
2023-03-14T07:52:39.759Z,14.86
2023-03-14T07:55:11.539Z,15.27
2023-03-14T07:57:43.111Z,15.07
2023-03-14T08:00:16.063Z,15.26
2023-03-14T08:02:47.823Z,16.26
2023-03-14T08:05:21.753Z,15.36
2023-03-14T08:07:53.526Z,14.51
2023-03-14T08:10:25.084Z,16.22
2023-03-14T08:12:59.439Z,16.73
2023-03-14T08:15:31.630Z,15.91
2023-03-14T08:18:03.506Z,15.85
2023-03-14T08:20:36.290Z,15.78
2023-03-14T08:23:07.875Z,15.49
2023-03-14T08:25:39.759Z,16.57
2023-03-14T08:28:11.477Z,16.60
2023-03-14T08:30:46.809Z,17.07
2023-03-14T08:33:19.583Z,18.16
2023-03-14T08:36:00.722Z,18.81
2023-03-14T08:38:32.426Z,15.75
2023-03-14T08:41:07.448Z,17.50
2023-03-14T08:43:41.601Z,16.84
2023-03-14T08:46:13.160Z,16.81
2023-03-14T08:48:44.854Z,16.88
2023-03-14T08:51:16.489Z,17.23
2023-03-14T08:53:48.035Z,17.21
2023-03-14T08:56:19.777Z,16.89
2023-03-14T08:58:51.301Z,16.57
2023-03-14T09:01:25.238Z,16.27
2023-03-14T09:03:57.190Z,15.93
2023-03-14T09:06:28.797Z,15.77
2023-03-14T09:09:00.390Z,15.59
2023-03-14T09:11:32.441Z,15.78
2023-03-14T09:14:04.032Z,15.53
2023-03-14T09:16:35.776Z,16.01
2023-03-14T09:19:07.485Z,16.61
2023-03-14T09:21:39.859Z,16.64
2023-03-14T09:24:11.520Z,16.73
2023-03-14T09:26:43.250Z,15.89
2023-03-14T09:29:14.898Z,17.04
2023-03-14T09:31:46.527Z,16.53
2023-03-14T09:34:18.145Z,15.75
2023-03-14T09:36:49.723Z,15.84
2023-03-14T09:39:23.450Z,15.45
2023-03-14T09:41:58.943Z,15.95
2023-03-14T09:44:34.029Z,16.24
2023-03-14T09:47:15.202Z,15.80
2023-03-14T09:49:49.822Z,15.73
2023-03-14T09:52:40.181Z,15.49
2023-03-14T09:55:22.420Z,15.66
2023-03-14T09:58:03.042Z,15.17
2023-03-14T10:00:34.571Z,15.56
2023-03-14T10:03:15.038Z,15.49
2023-03-14T10:05:46.784Z,15.23
2023-03-14T10:08:18.358Z,14.29
2023-03-14T10:10:50.008Z,15.18
2023-03-14T10:13:26.908Z,14.21
2023-03-14T10:16:07.346Z,14.37
2023-03-14T10:18:38.939Z,14.44
2023-03-14T10:21:29.304Z,13.91
2023-03-14T10:24:19.173Z,13.95
2023-03-14T10:26:55.125Z,14.03
2023-03-14T10:29:26.681Z,14.18
2023-03-14T10:32:04.620Z,14.04
2023-03-14T10:34:39.471Z,14.38
2023-03-14T10:37:27.607Z,13.87
2023-03-14T10:40:06.555Z,13.86
2023-03-14T10:42:46.083Z,14.21
2023-03-14T10:45:37.295Z,14.05
2023-03-14T10:48:37.921Z,13.39
2023-03-14T10:51:20.482Z,13.05
2023-03-14T10:54:04.114Z,12.74
2023-03-14T10:56:38.508Z,13.26
2023-03-14T10:59:16.502Z,13.00
2023-03-14T11:02:05.579Z,13.62
2023-03-14T11:05:05.631Z,13.22
2023-03-14T11:07:42.731Z,13.19
2023-03-14T11:10:41.109Z,12.62
2023-03-14T11:13:40.494Z,11.61
2023-03-14T11:16:21.026Z,12.38
2023-03-14T11:19:26.179Z,12.13
2023-03-14T11:22:33.333Z,12.37
2023-03-14T11:25:33.693Z,12.03
2023-03-14T11:28:33.207Z,12.31
2023-03-14T11:31:29.843Z,12.41
2023-03-14T11:34:38.731Z,12.06
2023-03-14T11:37:41.708Z,12.06
2023-03-14T11:40:26.204Z,11.90
2023-03-14T11:43:21.017Z,11.71
2023-03-14T11:45:55.020Z,12.42
2023-03-14T11:48:33.567Z,12.09
2023-03-14T11:51:16.138Z,11.66
2023-03-14T11:54:02.676Z,12.02
2023-03-14T11:57:02.847Z,12.26
2023-03-14T12:00:01.669Z,11.79
2023-03-14T12:03:17.998Z,12.21
2023-03-14T12:06:26.999Z,12.11
2023-03-14T12:09:05.116Z,11.97
2023-03-14T12:11:57.462Z,11.78
2023-03-14T12:14:38.646Z,11.82
2023-03-14T12:17:38.854Z,11.92
2023-03-14T12:20:26.232Z,11.67
2023-03-14T12:23:06.549Z,11.15
2023-03-14T12:25:38.255Z,11.08
2023-03-14T12:28:22.677Z,10.73
2023-03-14T12:30:54.249Z,10.50
2023-03-14T12:33:31.625Z,9.73
2023-03-14T12:36:05.738Z,10.44
2023-03-14T12:38:37.310Z,10.01
2023-03-14T12:41:38.188Z,10.01
2023-03-14T12:44:41.980Z,10.08
2023-03-14T12:47:22.131Z,10.11
2023-03-14T12:49:58.226Z,9.50
2023-03-14T12:52:56.764Z,9.82
2023-03-14T12:55:46.611Z,10.47
2023-03-14T12:58:38.578Z,10.55
2023-03-14T13:01:20.013Z,10.32
2023-03-14T13:04:03.836Z,10.87
2023-03-14T13:07:03.575Z,10.62
2023-03-14T13:10:04.066Z,10.62
2023-03-14T13:13:07.263Z,11.33
2023-03-14T13:15:50.325Z,11.45
2023-03-14T13:19:12.414Z,10.89
2023-03-14T13:21:44.574Z,11.25
2023-03-14T13:24:26.054Z,11.43
2023-03-14T13:27:01.696Z,10.37
2023-03-14T13:29:34.026Z,11.43
2023-03-14T13:32:23.255Z,10.96
2023-03-14T13:34:59.519Z,11.39
2023-03-14T13:37:31.140Z,11.43
2023-03-14T13:40:03.004Z,10.85
2023-03-14T13:42:34.630Z,11.52
2023-03-14T13:45:07.035Z,11.11
2023-03-14T13:47:40.566Z,11.24
2023-03-14T13:50:19.658Z,11.69
2023-03-14T13:52:58.139Z,11.22
2023-03-14T13:55:31.066Z,10.57
2023-03-14T13:58:02.618Z,10.53
2023-03-14T14:00:36.253Z,10.38
2023-03-14T14:03:12.378Z,11.57
2023-03-14T14:05:45.892Z,12.64
2023-03-14T14:08:17.561Z,14.34
2023-03-14T14:10:50.756Z,15.43
2023-03-14T14:13:25.714Z,14.95
2023-03-14T14:16:00.937Z,13.61
2023-03-14T14:18:33.024Z,12.56
2023-03-14T14:21:05.074Z,12.18
2023-03-14T14:23:37.205Z,12.85
2023-03-14T14:26:09.373Z,12.46
2023-03-14T14:28:41.655Z,12.97
2023-03-14T14:31:16.362Z,12.58
2023-03-14T14:34:04.904Z,13.68
2023-03-14T14:36:42.893Z,13.43
2023-03-14T14:39:31.738Z,13.49
2023-03-14T14:42:03.528Z,12.76
2023-03-14T14:44:37.337Z,12.99
2023-03-14T14:47:15.485Z,14.63
2023-03-14T14:49:49.256Z,14.15
2023-03-14T14:53:00.685Z,13.55
2023-03-14T14:55:35.859Z,13.43
2023-03-14T14:58:40.525Z,12.90
2023-03-14T15:01:23.824Z,12.27
2023-03-14T15:03:55.410Z,12.83
2023-03-14T15:06:30.825Z,12.39
2023-03-14T15:09:02.532Z,12.15
2023-03-14T15:11:34.384Z,11.31
2023-03-14T15:14:07.777Z,12.08
2023-03-14T15:16:40.970Z,12.20
2023-03-14T15:19:26.735Z,12.99
2023-03-14T15:21:58.272Z,12.38
2023-03-14T15:24:29.857Z,11.97
2023-03-14T15:27:01.698Z,12.35
2023-03-14T15:29:33.415Z,11.83
2023-03-14T15:32:05.577Z,11.16
2023-03-14T15:34:37.189Z,11.48
2023-03-14T15:37:17.608Z,11.93
2023-03-14T15:39:49.215Z,12.11
2023-03-14T15:42:20.716Z,12.11
2023-03-14T15:44:52.519Z,12.38
2023-03-14T15:47:24.050Z,12.26
2023-03-14T15:49:55.795Z,12.50
2023-03-14T15:52:27.381Z,11.61
2023-03-14T15:55:01.925Z,12.29
2023-03-14T15:57:33.457Z,12.53
2023-03-14T16:00:15.716Z,12.36
2023-03-14T16:02:47.582Z,12.01
2023-03-14T16:05:20.513Z,11.56
2023-03-14T16:07:52.121Z,12.31
2023-03-14T16:10:23.649Z,12.06
2023-03-14T16:12:55.504Z,12.30
2023-03-14T16:15:27.596Z,12.46
2023-03-14T16:18:00.832Z,12.50
2023-03-14T16:20:45.468Z,13.12
2023-03-14T16:23:19.381Z,13.33
2023-03-14T16:25:52.371Z,12.84
2023-03-14T16:28:24.737Z,12.71
2023-03-14T16:31:05.239Z,12.65
2023-03-14T16:33:38.677Z,12.56
2023-03-14T16:36:12.687Z,12.45
2023-03-14T16:38:45.649Z,12.55
2023-03-14T16:41:22.403Z,12.67
2023-03-14T16:43:54.597Z,13.26
2023-03-14T16:46:28.432Z,13.14
2023-03-14T16:49:00.119Z,12.72
2023-03-14T16:51:32.067Z,12.81
2023-03-14T16:54:03.825Z,12.64
2023-03-14T16:56:35.795Z,12.71
2023-03-14T16:59:07.745Z,12.58
2023-03-14T17:01:41.041Z,12.54
2023-03-14T17:04:12.725Z,12.55
2023-03-14T17:06:45.445Z,12.50
2023-03-14T17:09:17.030Z,12.62
2023-03-14T17:11:48.631Z,12.46
2023-03-14T17:14:20.258Z,12.28
2023-03-14T17:16:52.542Z,12.24
2023-03-14T17:19:24.189Z,12.36
2023-03-14T17:22:09.359Z,12.61
2023-03-14T17:24:47.389Z,12.70
2023-03-14T17:27:20.553Z,12.44
2023-03-14T17:29:52.466Z,12.48
2023-03-14T17:32:24.127Z,12.17
2023-03-14T17:34:55.847Z,12.31
2023-03-14T17:37:28.343Z,11.88
2023-03-14T17:40:01.696Z,11.23
2023-03-14T17:42:33.290Z,10.17
2023-03-14T17:45:05.854Z,10.56
2023-03-14T17:47:37.630Z,10.29
2023-03-14T17:50:10.659Z,10.55
2023-03-14T17:52:42.360Z,10.70
2023-03-14T17:55:14.632Z,10.80
2023-03-14T17:57:46.259Z,10.67
2023-03-14T18:00:23.297Z,10.25
2023-03-14T18:02:57.672Z,10.14
2023-03-14T18:05:30.137Z,10.13
2023-03-14T18:08:01.739Z,10.04
2023-03-14T18:10:33.407Z,9.63
2023-03-14T18:13:05.046Z,10.31
2023-03-14T18:15:39.801Z,10.30
2023-03-14T18:18:11.286Z,10.24
2023-03-14T18:20:48.051Z,9.80
2023-03-14T18:23:21.543Z,9.13
2023-03-14T18:25:53.158Z,9.51
2023-03-14T18:28:24.819Z,9.47
2023-03-14T18:31:07.724Z,9.44
2023-03-14T18:33:41.623Z,9.84
2023-03-14T18:36:13.924Z,9.96
2023-03-14T18:38:48.487Z,9.64
2023-03-14T18:41:20.279Z,9.89
2023-03-14T18:43:53.702Z,9.62
2023-03-14T18:46:25.340Z,9.95
2023-03-14T18:48:57.715Z,10.11
2023-03-14T18:51:31.027Z,9.67
2023-03-14T18:54:09.495Z,9.32
2023-03-14T18:56:42.095Z,9.68
2023-03-14T18:59:13.954Z,9.85
2023-03-14T19:01:45.538Z,9.70
2023-03-14T19:04:18.562Z,9.77
2023-03-14T19:06:50.331Z,9.95
2023-03-14T19:09:21.899Z,9.67
2023-03-14T19:11:53.493Z,9.41
2023-03-14T19:14:25.046Z,9.17
2023-03-14T19:16:56.648Z,8.82
2023-03-14T19:19:28.183Z,9.09
2023-03-14T19:21:59.914Z,9.19
2023-03-14T19:24:31.946Z,9.11
2023-03-14T19:27:03.940Z,8.94
2023-03-14T19:29:41.977Z,8.74
2023-03-14T19:32:16.228Z,8.67
2023-03-14T19:34:47.981Z,8.46
2023-03-14T19:37:19.636Z,8.27
2023-03-14T19:39:51.566Z,7.89
2023-03-14T19:42:23.270Z,8.47
2023-03-14T19:44:56.482Z,8.16
2023-03-14T19:47:31.986Z,7.98
2023-03-14T19:50:10.851Z,7.71
2023-03-14T19:53:23.744Z,7.96
2023-03-14T19:55:56.520Z,7.94
2023-03-14T19:58:28.079Z,8.19
2023-03-14T20:01:00.518Z,8.39
2023-03-14T20:03:32.557Z,8.02
2023-03-14T20:06:09.696Z,8.38
2023-03-14T20:08:42.349Z,8.56
2023-03-14T20:11:14.395Z,8.02
2023-03-14T20:13:47.200Z,6.99
2023-03-14T20:16:21.883Z,7.58
2023-03-14T20:18:53.437Z,7.10
2023-03-14T20:21:25.130Z,7.27
2023-03-14T20:23:56.713Z,7.75
2023-03-14T20:26:29.818Z,7.47
2023-03-14T20:29:01.569Z,8.06
2023-03-14T20:31:34.162Z,8.05
2023-03-14T20:34:05.805Z,8.07
2023-03-14T20:36:38.343Z,7.90
2023-03-14T20:39:10.335Z,7.34
2023-03-14T20:41:42.334Z,6.80
2023-03-14T20:44:13.933Z,6.32
2023-03-14T20:46:45.700Z,6.29
2023-03-14T20:49:17.383Z,6.95
2023-03-14T20:51:49.116Z,6.94
2023-03-14T20:54:20.857Z,7.24
2023-03-14T20:56:52.549Z,7.50
2023-03-14T20:59:24.721Z,7.33
2023-03-14T21:01:57.800Z,7.45
2023-03-14T21:04:29.504Z,6.93
2023-03-14T21:07:04.408Z,6.95
2023-03-14T21:09:35.888Z,6.84
2023-03-14T21:12:07.575Z,7.57
2023-03-14T21:14:39.025Z,7.52
2023-03-14T21:17:10.570Z,7.70
2023-03-14T21:19:42.261Z,7.72
2023-03-14T21:22:18.400Z,7.25
2023-03-14T21:24:50.297Z,7.40
2023-03-14T21:27:22.366Z,7.35
2023-03-14T21:29:53.925Z,7.95
2023-03-14T21:32:25.509Z,7.73
2023-03-14T21:34:57.012Z,7.87
2023-03-14T21:37:28.565Z,7.97
2023-03-14T21:40:00.061Z,8.06
2023-03-14T21:42:32.358Z,8.17
2023-03-14T21:45:05.354Z,8.09
2023-03-14T21:47:36.870Z,8.09
2023-03-14T21:50:09.374Z,8.38
2023-03-14T21:52:46.087Z,8.66
2023-03-14T21:55:18.600Z,8.28
2023-03-14T21:57:50.179Z,8.44
2023-03-14T22:00:22.037Z,8.49
2023-03-14T22:03:11.803Z,7.57
2023-03-14T22:05:46.332Z,8.19
2023-03-14T22:08:20.439Z,8.01
2023-03-14T22:10:54.259Z,8.41
2023-03-14T22:13:25.931Z,8.43
2023-03-14T22:15:57.672Z,8.34
2023-03-14T22:18:30.457Z,8.15
2023-03-14T22:21:02.101Z,8.55
2023-03-14T22:23:33.699Z,8.27
2023-03-14T22:26:05.464Z,8.47
2023-03-14T22:28:37.196Z,8.26
2023-03-14T22:31:10.305Z,8.20
2023-03-14T22:33:42.127Z,8.48
2023-03-14T22:36:13.658Z,8.65
2023-03-14T22:38:45.253Z,8.39
2023-03-14T22:41:16.983Z,8.53
2023-03-14T22:43:49.899Z,8.55
2023-03-14T22:46:21.444Z,8.39
2023-03-14T22:48:53.017Z,8.66
2023-03-14T22:51:24.608Z,8.36
2023-03-14T22:53:56.082Z,8.85
2023-03-14T22:56:27.780Z,9.11
2023-03-14T22:59:00.856Z,8.74
2023-03-14T23:01:32.402Z,8.74
2023-03-14T23:04:04.621Z,9.02
2023-03-14T23:06:36.187Z,8.99
2023-03-14T23:09:07.691Z,8.70
2023-03-14T23:11:39.749Z,8.75
2023-03-14T23:14:11.240Z,8.90
2023-03-14T23:16:43.050Z,9.09
2023-03-14T23:19:14.860Z,8.66
2023-03-14T23:21:46.345Z,8.42
2023-03-14T23:24:17.988Z,8.43
2023-03-14T23:26:49.522Z,8.16
2023-03-14T23:29:20.991Z,8.34
2023-03-14T23:31:52.610Z,7.82
2023-03-14T23:34:25.241Z,8.10
2023-03-14T23:36:56.735Z,8.01
2023-03-14T23:39:28.254Z,8.46
2023-03-14T23:41:59.858Z,8.28
2023-03-14T23:44:31.376Z,8.06
2023-03-14T23:47:03.581Z,7.61
2023-03-14T23:49:35.451Z,7.81
2023-03-14T23:52:07.924Z,7.49
2023-03-14T23:54:39.421Z,7.19
2023-03-14T23:57:11.270Z,7.15
2023-03-14T23:59:42.885Z,7.61
